sensor_id;sensor_type;location;lat;lon;timestamp;P1;durP1;ratioP1;P2;durP2;ratioP2
52284;SDS011;38238;53.304;6.606;2022-08-11T00:00:36;7.30;;;4.78;;
52284;SDS011;38238;53.304;6.606;2022-08-11T00:03:07;6.57;;;4.50;;
52284;SDS011;38238;53.304;6.606;2022-08-11T00:05:43;6.50;;;4.60;;
52284;SDS011;38238;53.304;6.606;2022-08-11T00:08:20;7.18;;;4.45;;
52284;SDS011;38238;53.304;6.606;2022-08-11T00:10:55;7.00;;;4.73;;
52284;SDS011;38238;53.304;6.606;2022-08-11T00:13:45;8.20;;;4.95;;
52284;SDS011;38238;53.304;6.606;2022-08-11T00:16:13;7.25;;;4.88;;
52284;SDS011;38238;53.304;6.606;2022-08-11T00:18:42;6.20;;;4.22;;
52284;SDS011;38238;53.304;6.606;2022-08-11T00:21:10;6.35;;;4.30;;
52284;SDS011;38238;53.304;6.606;2022-08-11T00:23:41;6.82;;;4.50;;
52284;SDS011;38238;53.304;6.606;2022-08-11T00:26:09;6.38;;;4.47;;
52284;SDS011;38238;53.304;6.606;2022-08-11T00:28:36;7.72;;;4.18;;
52284;SDS011;38238;53.304;6.606;2022-08-11T00:31:04;8.23;;;4.72;;
52284;SDS011;38238;53.304;6.606;2022-08-11T00:33:33;7.72;;;4.70;;
52284;SDS011;38238;53.304;6.606;2022-08-11T00:35:59;7.47;;;4.25;;
52284;SDS011;38238;53.304;6.606;2022-08-11T00:38:28;6.43;;;4.57;;
52284;SDS011;38238;53.304;6.606;2022-08-11T00:41:07;6.50;;;4.72;;
52284;SDS011;38238;53.304;6.606;2022-08-11T00:52:28;8.07;;;4.32;;
52284;SDS011;38238;53.304;6.606;2022-08-11T01:01:04;5.20;;;3.53;;
52284;SDS011;38238;53.304;6.606;2022-08-11T01:12:35;7.32;;;4.72;;
52284;SDS011;38238;53.304;6.606;2022-08-11T01:18:31;5.20;;;4.15;;
52284;SDS011;38238;53.304;6.606;2022-08-11T01:24:21;4.70;;;3.88;;
52284;SDS011;38238;53.304;6.606;2022-08-11T01:35:43;6.53;;;4.13;;
52284;SDS011;38238;53.304;6.606;2022-08-11T02:01:56;6.70;;;3.80;;
52284;SDS011;38238;53.304;6.606;2022-08-11T02:07:57;6.80;;;4.50;;
52284;SDS011;38238;53.304;6.606;2022-08-11T02:10:43;5.70;;;4.55;;
52284;SDS011;38238;53.304;6.606;2022-08-11T02:13:52;6.18;;;3.95;;
52284;SDS011;38238;53.304;6.606;2022-08-11T02:17:04;4.85;;;4.00;;
52284;SDS011;38238;53.304;6.606;2022-08-11T02:19:52;7.57;;;5.00;;
52284;SDS011;38238;53.304;6.606;2022-08-11T02:31:01;6.25;;;4.35;;
52284;SDS011;38238;53.304;6.606;2022-08-11T02:36:55;5.60;;;4.15;;
52284;SDS011;38238;53.304;6.606;2022-08-11T02:39:30;8.70;;;4.43;;
52284;SDS011;38238;53.304;6.606;2022-08-11T02:44:58;4.78;;;3.80;;
52284;SDS011;38238;53.304;6.606;2022-08-11T02:47:49;6.40;;;4.03;;
52284;SDS011;38238;53.304;6.606;2022-08-11T02:51:03;8.05;;;4.90;;
52284;SDS011;38238;53.304;6.606;2022-08-11T02:59:16;4.95;;;3.92;;
52284;SDS011;38238;53.304;6.606;2022-08-11T03:22:33;6.68;;;5.05;;
52284;SDS011;38238;53.304;6.606;2022-08-11T03:25:10;6.53;;;5.43;;
52284;SDS011;38238;53.304;6.606;2022-08-11T03:33:46;9.50;;;6.45;;
52284;SDS011;38238;53.304;6.606;2022-08-11T03:36:40;6.85;;;5.00;;
52284;SDS011;38238;53.304;6.606;2022-08-11T03:42:24;6.35;;;4.80;;
52284;SDS011;38238;53.304;6.606;2022-08-11T03:48:12;6.53;;;4.20;;
52284;SDS011;38238;53.304;6.606;2022-08-11T04:06:48;6.82;;;4.93;;
52284;SDS011;38238;53.304;6.606;2022-08-11T04:10:03;6.13;;;4.72;;
52284;SDS011;38238;53.304;6.606;2022-08-11T04:21:08;10.25;;;6.05;;
52284;SDS011;38238;53.304;6.606;2022-08-11T04:24:07;7.85;;;6.05;;
52284;SDS011;38238;53.304;6.606;2022-08-11T04:40:39;6.20;;;5.10;;
52284;SDS011;38238;53.304;6.606;2022-08-11T04:43:37;7.18;;;5.00;;
52284;SDS011;38238;53.304;6.606;2022-08-11T04:46:40;6.15;;;4.95;;
52284;SDS011;38238;53.304;6.606;2022-08-11T04:58:23;7.60;;;6.35;;
52284;SDS011;38238;53.304;6.606;2022-08-11T05:01:31;8.82;;;6.40;;
52284;SDS011;38238;53.304;6.606;2022-08-11T05:07:41;8.40;;;6.05;;
52284;SDS011;38238;53.304;6.606;2022-08-11T05:16:50;8.63;;;7.45;;
52284;SDS011;38238;53.304;6.606;2022-08-11T05:19:37;9.18;;;7.82;;
52284;SDS011;38238;53.304;6.606;2022-08-11T05:22:26;9.85;;;7.78;;
52284;SDS011;38238;53.304;6.606;2022-08-11T05:25:17;10.68;;;7.75;;
52284;SDS011;38238;53.304;6.606;2022-08-11T05:28:14;12.65;;;8.52;;
52284;SDS011;38238;53.304;6.606;2022-08-11T05:31:04;11.85;;;8.25;;
52284;SDS011;38238;53.304;6.606;2022-08-11T05:33:57;9.80;;;8.13;;
52284;SDS011;38238;53.304;6.606;2022-08-11T05:36:46;11.63;;;8.88;;
52284;SDS011;38238;53.304;6.606;2022-08-11T05:39:18;10.98;;;8.68;;
52284;SDS011;38238;53.304;6.606;2022-08-11T05:42:09;14.90;;;9.40;;
52284;SDS011;38238;53.304;6.606;2022-08-11T05:44:56;14.10;;;10.02;;
52284;SDS011;38238;53.304;6.606;2022-08-11T05:47:49;13.52;;;9.55;;
52284;SDS011;38238;53.304;6.606;2022-08-11T05:50:34;13.88;;;9.80;;
52284;SDS011;38238;53.304;6.606;2022-08-11T05:53:19;14.30;;;10.80;;
52284;SDS011;38238;53.304;6.606;2022-08-11T05:56:05;14.15;;;11.13;;
52284;SDS011;38238;53.304;6.606;2022-08-11T05:58:44;12.65;;;9.85;;
52284;SDS011;38238;53.304;6.606;2022-08-11T06:01:13;12.02;;;10.45;;
52284;SDS011;38238;53.304;6.606;2022-08-11T06:03:50;12.45;;;9.68;;
52284;SDS011;38238;53.304;6.606;2022-08-11T06:06:37;13.52;;;9.80;;
52284;SDS011;38238;53.304;6.606;2022-08-11T06:09:04;12.43;;;9.57;;
52284;SDS011;38238;53.304;6.606;2022-08-11T06:11:36;10.55;;;9.25;;
52284;SDS011;38238;53.304;6.606;2022-08-11T06:14:04;11.57;;;8.82;;
52284;SDS011;38238;53.304;6.606;2022-08-11T06:16:31;9.80;;;8.73;;
52284;SDS011;38238;53.304;6.606;2022-08-11T06:18:58;9.38;;;7.85;;
52284;SDS011;38238;53.304;6.606;2022-08-11T06:21:24;11.30;;;8.65;;
52284;SDS011;38238;53.304;6.606;2022-08-11T06:23:52;11.52;;;8.50;;
52284;SDS011;38238;53.304;6.606;2022-08-11T06:26:19;10.38;;;8.07;;
52284;SDS011;38238;53.304;6.606;2022-08-11T06:28:46;9.52;;;8.32;;
52284;SDS011;38238;53.304;6.606;2022-08-11T06:31:14;10.27;;;7.22;;
52284;SDS011;38238;53.304;6.606;2022-08-11T06:33:57;8.63;;;6.95;;
52284;SDS011;38238;53.304;6.606;2022-08-11T06:48:05;9.80;;;6.35;;
52284;SDS011;38238;53.304;6.606;2022-08-11T06:50:39;7.97;;;6.20;;
52284;SDS011;38238;53.304;6.606;2022-08-11T06:53:23;8.30;;;6.30;;
52284;SDS011;38238;53.304;6.606;2022-08-11T06:55:49;8.82;;;6.18;;
52284;SDS011;38238;53.304;6.606;2022-08-11T06:58:35;8.50;;;5.60;;
52284;SDS011;38238;53.304;6.606;2022-08-11T07:01:37;8.82;;;6.13;;
52284;SDS011;38238;53.304;6.606;2022-08-11T07:04:10;11.55;;;6.97;;
52284;SDS011;38238;53.304;6.606;2022-08-11T07:06:49;10.80;;;6.50;;
52284;SDS011;38238;53.304;6.606;2022-08-11T07:10:02;8.75;;;5.40;;
52284;SDS011;38238;53.304;6.606;2022-08-11T07:13:08;9.15;;;6.35;;
52284;SDS011;38238;53.304;6.606;2022-08-11T07:15:54;9.40;;;5.53;;
52284;SDS011;38238;53.304;6.606;2022-08-11T07:18:27;8.10;;;5.65;;
52284;SDS011;38238;53.304;6.606;2022-08-11T07:24:00;7.18;;;5.68;;
52284;SDS011;38238;53.304;6.606;2022-08-11T07:26:50;8.10;;;5.70;;
52284;SDS011;38238;53.304;6.606;2022-08-11T07:29:38;6.90;;;5.30;;
52284;SDS011;38238;53.304;6.606;2022-08-11T07:32:14;7.18;;;5.65;;
52284;SDS011;38238;53.304;6.606;2022-08-11T07:34:47;8.63;;;5.80;;
52284;SDS011;38238;53.304;6.606;2022-08-11T07:37:19;8.00;;;4.90;;
52284;SDS011;38238;53.304;6.606;2022-08-11T07:39:47;8.38;;;5.28;;
52284;SDS011;38238;53.304;6.606;2022-08-11T07:42:14;7.65;;;4.85;;
52284;SDS011;38238;53.304;6.606;2022-08-11T07:44:46;7.13;;;4.88;;
52284;SDS011;38238;53.304;6.606;2022-08-11T07:47:31;6.85;;;4.70;;
52284;SDS011;38238;53.304;6.606;2022-08-11T07:50:19;8.18;;;5.13;;
52284;SDS011;38238;53.304;6.606;2022-08-11T07:53:03;5.80;;;4.57;;
52284;SDS011;38238;53.304;6.606;2022-08-11T07:55:29;7.63;;;4.88;;
52284;SDS011;38238;53.304;6.606;2022-08-11T07:57:56;7.70;;;5.15;;
52284;SDS011;38238;53.304;6.606;2022-08-11T08:00:43;9.65;;;5.32;;
52284;SDS011;38238;53.304;6.606;2022-08-11T08:03:32;9.40;;;5.10;;
52284;SDS011;38238;53.304;6.606;2022-08-11T08:06:17;6.47;;;4.63;;
52284;SDS011;38238;53.304;6.606;2022-08-11T08:09:02;5.95;;;4.15;;
52284;SDS011;38238;53.304;6.606;2022-08-11T08:11:47;7.07;;;4.13;;
52284;SDS011;38238;53.304;6.606;2022-08-11T08:14:32;5.68;;;3.50;;
52284;SDS011;38238;53.304;6.606;2022-08-11T08:17:18;3.75;;;3.00;;
52284;SDS011;38238;53.304;6.606;2022-08-11T08:20:04;4.30;;;3.20;;
52284;SDS011;38238;53.304;6.606;2022-08-11T08:22:31;4.97;;;2.83;;
52284;SDS011;38238;53.304;6.606;2022-08-11T08:24:59;5.68;;;3.30;;
52284;SDS011;38238;53.304;6.606;2022-08-11T08:27:25;4.88;;;3.47;;
52284;SDS011;38238;53.304;6.606;2022-08-11T08:29:51;6.63;;;3.00;;
52284;SDS011;38238;53.304;6.606;2022-08-11T08:32:39;4.65;;;3.20;;
52284;SDS011;38238;53.304;6.606;2022-08-11T08:35:06;4.43;;;2.70;;
52284;SDS011;38238;53.304;6.606;2022-08-11T08:37:35;4.32;;;2.75;;
52284;SDS011;38238;53.304;6.606;2022-08-11T08:40:02;5.38;;;2.53;;
52284;SDS011;38238;53.304;6.606;2022-08-11T08:42:31;3.92;;;2.35;;
52284;SDS011;38238;53.304;6.606;2022-08-11T08:45:04;5.15;;;2.47;;
52284;SDS011;38238;53.304;6.606;2022-08-11T08:47:35;3.95;;;2.17;;
52284;SDS011;38238;53.304;6.606;2022-08-11T08:50:07;4.18;;;2.50;;
52284;SDS011;38238;53.304;6.606;2022-08-11T08:52:53;4.95;;;2.63;;
52284;SDS011;38238;53.304;6.606;2022-08-11T08:55:24;6.43;;;2.70;;
52284;SDS011;38238;53.304;6.606;2022-08-11T08:57:53;3.78;;;2.08;;
52284;SDS011;38238;53.304;6.606;2022-08-11T09:00:24;4.07;;;2.22;;
52284;SDS011;38238;53.304;6.606;2022-08-11T09:03:06;4.40;;;2.28;;
52284;SDS011;38238;53.304;6.606;2022-08-11T09:05:33;3.60;;;1.88;;
52284;SDS011;38238;53.304;6.606;2022-08-11T09:07:59;5.45;;;2.25;;
52284;SDS011;38238;53.304;6.606;2022-08-11T09:10:25;4.55;;;2.50;;
52284;SDS011;38238;53.304;6.606;2022-08-11T09:12:55;3.50;;;1.73;;
52284;SDS011;38238;53.304;6.606;2022-08-11T09:15:22;3.63;;;1.80;;
52284;SDS011;38238;53.304;6.606;2022-08-11T09:17:53;3.83;;;2.00;;
52284;SDS011;38238;53.304;6.606;2022-08-11T09:20:27;5.55;;;2.08;;
52284;SDS011;38238;53.304;6.606;2022-08-11T09:23:00;4.25;;;1.60;;
52284;SDS011;38238;53.304;6.606;2022-08-11T09:25:46;3.42;;;1.60;;
52284;SDS011;38238;53.304;6.606;2022-08-11T09:28:35;3.83;;;1.65;;
52284;SDS011;38238;53.304;6.606;2022-08-11T09:31:01;5.55;;;2.22;;
52284;SDS011;38238;53.304;6.606;2022-08-11T09:33:28;3.67;;;1.77;;
52284;SDS011;38238;53.304;6.606;2022-08-11T09:35:55;4.10;;;1.60;;
52284;SDS011;38238;53.304;6.606;2022-08-11T09:38:23;5.03;;;1.48;;
52284;SDS011;38238;53.304;6.606;2022-08-11T09:41:09;8.65;;;2.50;;
52284;SDS011;38238;53.304;6.606;2022-08-11T09:43:41;5.28;;;2.30;;
52284;SDS011;38238;53.304;6.606;2022-08-11T09:46:28;4.75;;;1.63;;
52284;SDS011;38238;53.304;6.606;2022-08-11T09:48:55;3.00;;;1.55;;
52284;SDS011;38238;53.304;6.606;2022-08-11T09:51:23;2.97;;;1.58;;
52284;SDS011;38238;53.304;6.606;2022-08-11T09:53:49;2.25;;;1.38;;
52284;SDS011;38238;53.304;6.606;2022-08-11T09:56:17;5.38;;;1.85;;
52284;SDS011;38238;53.304;6.606;2022-08-11T09:59:03;4.35;;;1.48;;
52284;SDS011;38238;53.304;6.606;2022-08-11T10:01:31;3.40;;;1.17;;
52284;SDS011;38238;53.304;6.606;2022-08-11T10:06:33;4.38;;;1.70;;
52284;SDS011;38238;53.304;6.606;2022-08-11T10:09:20;3.42;;;1.60;;
52284;SDS011;38238;53.304;6.606;2022-08-11T10:11:48;3.88;;;1.50;;
52284;SDS011;38238;53.304;6.606;2022-08-11T10:14:23;4.57;;;1.75;;
52284;SDS011;38238;53.304;6.606;2022-08-11T10:17:09;3.97;;;1.40;;
52284;SDS011;38238;53.304;6.606;2022-08-11T10:19:36;4.47;;;1.55;;
52284;SDS011;38238;53.304;6.606;2022-08-11T10:22:03;4.57;;;1.50;;
52284;SDS011;38238;53.304;6.606;2022-08-11T10:24:49;4.20;;;1.70;;
52284;SDS011;38238;53.304;6.606;2022-08-11T10:27:35;4.35;;;1.70;;
52284;SDS011;38238;53.304;6.606;2022-08-11T10:30:03;2.35;;;1.50;;
52284;SDS011;38238;53.304;6.606;2022-08-11T10:32:49;5.63;;;1.83;;
52284;SDS011;38238;53.304;6.606;2022-08-11T10:35:34;4.07;;;1.63;;
52284;SDS011;38238;53.304;6.606;2022-08-11T10:38:00;4.72;;;1.90;;
52284;SDS011;38238;53.304;6.606;2022-08-11T10:40:26;4.55;;;1.60;;
52284;SDS011;38238;53.304;6.606;2022-08-11T10:42:54;2.75;;;1.40;;
52284;SDS011;38238;53.304;6.606;2022-08-11T10:45:37;4.00;;;1.70;;
52284;SDS011;38238;53.304;6.606;2022-08-11T10:48:24;2.80;;;1.58;;
52284;SDS011;38238;53.304;6.606;2022-08-11T10:50:52;3.10;;;1.38;;
52284;SDS011;38238;53.304;6.606;2022-08-11T10:53:38;2.72;;;1.42;;
52284;SDS011;38238;53.304;6.606;2022-08-11T10:56:35;2.72;;;1.50;;
52284;SDS011;38238;53.304;6.606;2022-08-11T10:59:22;3.15;;;1.60;;
52284;SDS011;38238;53.304;6.606;2022-08-11T11:01:51;8.75;;;1.75;;
52284;SDS011;38238;53.304;6.606;2022-08-11T11:04:28;6.47;;;1.85;;
52284;SDS011;38238;53.304;6.606;2022-08-11T11:07:14;10.55;;;3.20;;
52284;SDS011;38238;53.304;6.606;2022-08-11T11:09:54;3.92;;;1.90;;
52284;SDS011;38238;53.304;6.606;2022-08-11T11:12:30;2.97;;;1.42;;
52284;SDS011;38238;53.304;6.606;2022-08-11T11:15:17;3.80;;;1.30;;
52284;SDS011;38238;53.304;6.606;2022-08-11T11:18:05;2.45;;;1.50;;
52284;SDS011;38238;53.304;6.606;2022-08-11T11:20:40;4.00;;;1.60;;
52284;SDS011;38238;53.304;6.606;2022-08-11T11:37:40;3.60;;;1.30;;
52284;SDS011;38238;53.304;6.606;2022-08-11T11:40:12;4.50;;;1.40;;
52284;SDS011;38238;53.304;6.606;2022-08-11T11:42:41;2.80;;;1.50;;
52284;SDS011;38238;53.304;6.606;2022-08-11T11:45:09;2.67;;;1.40;;
52284;SDS011;38238;53.304;6.606;2022-08-11T11:47:39;4.00;;;1.70;;
52284;SDS011;38238;53.304;6.606;2022-08-11T11:50:06;2.30;;;1.40;;
52284;SDS011;38238;53.304;6.606;2022-08-11T11:52:33;3.97;;;1.67;;
52284;SDS011;38238;53.304;6.606;2022-08-11T11:55:02;3.47;;;1.35;;
52284;SDS011;38238;53.304;6.606;2022-08-11T11:57:29;2.70;;;1.33;;
52284;SDS011;38238;53.304;6.606;2022-08-11T12:00:15;2.97;;;1.35;;
52284;SDS011;38238;53.304;6.606;2022-08-11T12:03:02;4.03;;;1.55;;
52284;SDS011;38238;53.304;6.606;2022-08-11T12:05:32;2.70;;;1.40;;
52284;SDS011;38238;53.304;6.606;2022-08-11T12:08:00;5.68;;;1.70;;
52284;SDS011;38238;53.304;6.606;2022-08-11T12:10:39;3.25;;;1.40;;
52284;SDS011;38238;53.304;6.606;2022-08-11T12:13:15;5.25;;;1.40;;
52284;SDS011;38238;53.304;6.606;2022-08-11T12:16:01;2.28;;;1.30;;
52284;SDS011;38238;53.304;6.606;2022-08-11T12:18:31;2.45;;;1.35;;
52284;SDS011;38238;53.304;6.606;2022-08-11T12:20:59;2.47;;;1.50;;
52284;SDS011;38238;53.304;6.606;2022-08-11T12:23:26;3.58;;;1.40;;
52284;SDS011;38238;53.304;6.606;2022-08-11T12:26:12;2.78;;;1.45;;
52284;SDS011;38238;53.304;6.606;2022-08-11T12:28:59;3.13;;;1.60;;
52284;SDS011;38238;53.304;6.606;2022-08-11T12:31:27;4.47;;;1.73;;
52284;SDS011;38238;53.304;6.606;2022-08-11T12:34:04;4.15;;;1.65;;
52284;SDS011;38238;53.304;6.606;2022-08-11T12:36:37;2.80;;;1.52;;
52284;SDS011;38238;53.304;6.606;2022-08-11T12:39:06;2.35;;;1.42;;
52284;SDS011;38238;53.304;6.606;2022-08-11T12:41:34;2.42;;;1.63;;
52284;SDS011;38238;53.304;6.606;2022-08-11T12:44:22;2.53;;;1.38;;
52284;SDS011;38238;53.304;6.606;2022-08-11T12:47:09;1.90;;;1.40;;
52284;SDS011;38238;53.304;6.606;2022-08-11T12:49:37;2.17;;;1.40;;
52284;SDS011;38238;53.304;6.606;2022-08-11T12:52:30;2.65;;;1.30;;
52284;SDS011;38238;53.304;6.606;2022-08-11T12:55:11;3.92;;;1.63;;
52284;SDS011;38238;53.304;6.606;2022-08-11T12:58:03;5.97;;;1.80;;
52284;SDS011;38238;53.304;6.606;2022-08-11T13:00:41;3.78;;;1.50;;
52284;SDS011;38238;53.304;6.606;2022-08-11T13:03:30;4.10;;;1.70;;
52284;SDS011;38238;53.304;6.606;2022-08-11T13:06:16;3.95;;;1.45;;
52284;SDS011;38238;53.304;6.606;2022-08-11T13:08:43;3.00;;;1.70;;
52284;SDS011;38238;53.304;6.606;2022-08-11T13:11:10;4.97;;;1.75;;
52284;SDS011;38238;53.304;6.606;2022-08-11T13:13:54;2.83;;;1.60;;
52284;SDS011;38238;53.304;6.606;2022-08-11T13:16:27;2.78;;;1.40;;
52284;SDS011;38238;53.304;6.606;2022-08-11T13:18:58;2.20;;;1.42;;
52284;SDS011;38238;53.304;6.606;2022-08-11T13:21:25;3.53;;;1.48;;
52284;SDS011;38238;53.304;6.606;2022-08-11T13:23:52;4.50;;;1.58;;
52284;SDS011;38238;53.304;6.606;2022-08-11T13:26:21;3.47;;;1.45;;
52284;SDS011;38238;53.304;6.606;2022-08-11T13:28:48;3.72;;;1.75;;
52284;SDS011;38238;53.304;6.606;2022-08-11T13:31:15;4.03;;;1.92;;
52284;SDS011;38238;53.304;6.606;2022-08-11T13:33:48;4.05;;;1.45;;
52284;SDS011;38238;53.304;6.606;2022-08-11T13:36:19;3.15;;;1.70;;
52284;SDS011;38238;53.304;6.606;2022-08-11T13:38:48;3.45;;;1.70;;
52284;SDS011;38238;53.304;6.606;2022-08-11T13:41:14;4.28;;;1.80;;
52284;SDS011;38238;53.304;6.606;2022-08-11T13:44:03;4.10;;;1.98;;
52284;SDS011;38238;53.304;6.606;2022-08-11T13:46:33;4.40;;;1.90;;
52284;SDS011;38238;53.304;6.606;2022-08-11T13:48:59;6.95;;;2.20;;
52284;SDS011;38238;53.304;6.606;2022-08-11T13:51:25;5.00;;;2.05;;
52284;SDS011;38238;53.304;6.606;2022-08-11T13:56:41;5.45;;;2.20;;
52284;SDS011;38238;53.304;6.606;2022-08-11T13:59:09;4.88;;;2.17;;
52284;SDS011;38238;53.304;6.606;2022-08-11T14:01:37;4.28;;;1.60;;
52284;SDS011;38238;53.304;6.606;2022-08-11T14:04:07;6.35;;;1.88;;
52284;SDS011;38238;53.304;6.606;2022-08-11T14:06:36;3.90;;;2.25;;
52284;SDS011;38238;53.304;6.606;2022-08-11T14:09:07;4.28;;;1.83;;
52284;SDS011;38238;53.304;6.606;2022-08-11T14:11:33;3.78;;;1.88;;
52284;SDS011;38238;53.304;6.606;2022-08-11T14:14:21;3.58;;;1.90;;
52284;SDS011;38238;53.304;6.606;2022-08-11T14:16:49;5.47;;;1.60;;
52284;SDS011;38238;53.304;6.606;2022-08-11T14:19:19;4.63;;;1.90;;
52284;SDS011;38238;53.304;6.606;2022-08-11T14:21:48;5.93;;;1.73;;
52284;SDS011;38238;53.304;6.606;2022-08-11T14:27:04;3.03;;;1.63;;
52284;SDS011;38238;53.304;6.606;2022-08-11T14:29:36;3.70;;;1.55;;
52284;SDS011;38238;53.304;6.606;2022-08-11T14:32:05;4.13;;;1.80;;
52284;SDS011;38238;53.304;6.606;2022-08-11T14:34:33;2.83;;;1.55;;
52284;SDS011;38238;53.304;6.606;2022-08-11T14:37:11;5.53;;;1.85;;
52284;SDS011;38238;53.304;6.606;2022-08-11T14:39:40;3.38;;;1.70;;
52284;SDS011;38238;53.304;6.606;2022-08-11T14:42:09;5.28;;;1.90;;
52284;SDS011;38238;53.304;6.606;2022-08-11T14:44:58;3.72;;;1.90;;
52284;SDS011;38238;53.304;6.606;2022-08-11T14:47:50;2.00;;;1.42;;
52284;SDS011;38238;53.304;6.606;2022-08-11T14:50:28;3.28;;;1.60;;
52284;SDS011;38238;53.304;6.606;2022-08-11T14:53:02;5.35;;;1.85;;
52284;SDS011;38238;53.304;6.606;2022-08-11T14:55:34;2.38;;;1.48;;
52284;SDS011;38238;53.304;6.606;2022-08-11T14:58:24;4.82;;;1.92;;
52284;SDS011;38238;53.304;6.606;2022-08-11T15:00:52;4.50;;;1.60;;
52284;SDS011;38238;53.304;6.606;2022-08-11T15:03:21;3.20;;;1.73;;
52284;SDS011;38238;53.304;6.606;2022-08-11T15:05:52;3.90;;;1.80;;
52284;SDS011;38238;53.304;6.606;2022-08-11T15:08:20;6.28;;;1.85;;
52284;SDS011;38238;53.304;6.606;2022-08-11T15:11:11;3.80;;;2.03;;
52284;SDS011;38238;53.304;6.606;2022-08-11T15:13:58;4.10;;;2.15;;
52284;SDS011;38238;53.304;6.606;2022-08-11T15:16:26;4.10;;;2.10;;
52284;SDS011;38238;53.304;6.606;2022-08-11T15:19:12;4.22;;;2.00;;
52284;SDS011;38238;53.304;6.606;2022-08-11T15:21:39;4.63;;;2.33;;
52284;SDS011;38238;53.304;6.606;2022-08-11T15:24:35;4.50;;;2.50;;
52284;SDS011;38238;53.304;6.606;2022-08-11T15:27:03;5.05;;;2.10;;
52284;SDS011;38238;53.304;6.606;2022-08-11T15:29:52;5.07;;;2.20;;
52284;SDS011;38238;53.304;6.606;2022-08-11T15:32:39;4.30;;;1.77;;
52284;SDS011;38238;53.304;6.606;2022-08-11T15:35:25;3.42;;;1.85;;
52284;SDS011;38238;53.304;6.606;2022-08-11T15:38:11;6.95;;;2.08;;
52284;SDS011;38238;53.304;6.606;2022-08-11T15:40:39;2.83;;;1.63;;
52284;SDS011;38238;53.304;6.606;2022-08-11T15:43:40;7.15;;;1.88;;
52284;SDS011;38238;53.304;6.606;2022-08-11T15:46:30;5.00;;;2.10;;
52284;SDS011;38238;53.304;6.606;2022-08-11T15:49:12;2.75;;;1.77;;
52284;SDS011;38238;53.304;6.606;2022-08-11T15:51:47;4.55;;;2.15;;
52284;SDS011;38238;53.304;6.606;2022-08-11T15:54:18;4.00;;;1.88;;
52284;SDS011;38238;53.304;6.606;2022-08-11T15:56:49;7.20;;;2.08;;
52284;SDS011;38238;53.304;6.606;2022-08-11T15:59:17;2.83;;;2.08;;
52284;SDS011;38238;53.304;6.606;2022-08-11T16:02:03;3.85;;;1.92;;
52284;SDS011;38238;53.304;6.606;2022-08-11T16:04:49;5.15;;;1.92;;
52284;SDS011;38238;53.304;6.606;2022-08-11T16:07:18;4.10;;;1.98;;
52284;SDS011;38238;53.304;6.606;2022-08-11T16:09:51;4.00;;;1.98;;
52284;SDS011;38238;53.304;6.606;2022-08-11T16:12:45;5.28;;;1.90;;
52284;SDS011;38238;53.304;6.606;2022-08-11T16:15:30;2.95;;;1.80;;
52284;SDS011;38238;53.304;6.606;2022-08-11T16:18:21;5.47;;;2.00;;
52284;SDS011;38238;53.304;6.606;2022-08-11T16:21:13;3.75;;;2.08;;
52284;SDS011;38238;53.304;6.606;2022-08-11T16:23:44;4.18;;;1.90;;
52284;SDS011;38238;53.304;6.606;2022-08-11T16:26:12;4.43;;;1.85;;
52284;SDS011;38238;53.304;6.606;2022-08-11T16:28:41;5.70;;;2.25;;
52284;SDS011;38238;53.304;6.606;2022-08-11T16:31:08;4.43;;;2.03;;
52284;SDS011;38238;53.304;6.606;2022-08-11T16:33:39;7.35;;;2.35;;
52284;SDS011;38238;53.304;6.606;2022-08-11T16:36:06;3.70;;;1.90;;
52284;SDS011;38238;53.304;6.606;2022-08-11T16:38:52;5.07;;;1.92;;
52284;SDS011;38238;53.304;6.606;2022-08-11T16:41:20;4.00;;;1.95;;
52284;SDS011;38238;53.304;6.606;2022-08-11T16:44:08;3.75;;;2.00;;
52284;SDS011;38238;53.304;6.606;2022-08-11T16:46:54;5.40;;;2.15;;
52284;SDS011;38238;53.304;6.606;2022-08-11T16:49:30;5.78;;;1.92;;
52284;SDS011;38238;53.304;6.606;2022-08-11T16:51:58;6.20;;;2.22;;
52284;SDS011;38238;53.304;6.606;2022-08-11T16:54:29;4.10;;;2.00;;
52284;SDS011;38238;53.304;6.606;2022-08-11T16:56:56;4.15;;;2.00;;
52284;SDS011;38238;53.304;6.606;2022-08-11T16:59:44;4.78;;;2.30;;
52284;SDS011;38238;53.304;6.606;2022-08-11T17:02:11;5.50;;;2.20;;
52284;SDS011;38238;53.304;6.606;2022-08-11T17:04:59;4.75;;;2.42;;
52284;SDS011;38238;53.304;6.606;2022-08-11T17:07:49;6.25;;;2.40;;
52284;SDS011;38238;53.304;6.606;2022-08-11T17:10:48;6.40;;;2.58;;
52284;SDS011;38238;53.304;6.606;2022-08-11T17:13:40;3.63;;;2.13;;
52284;SDS011;38238;53.304;6.606;2022-08-11T17:16:30;6.75;;;2.60;;
52284;SDS011;38238;53.304;6.606;2022-08-11T17:18:59;4.80;;;2.10;;
52284;SDS011;38238;53.304;6.606;2022-08-11T17:21:33;7.47;;;2.45;;
52284;SDS011;38238;53.304;6.606;2022-08-11T17:24:28;5.60;;;2.50;;
52284;SDS011;38238;53.304;6.606;2022-08-11T17:26:59;7.00;;;2.45;;
52284;SDS011;38238;53.304;6.606;2022-08-11T17:31:56;6.13;;;2.45;;
52284;SDS011;38238;53.304;6.606;2022-08-11T17:34:44;5.68;;;2.30;;
52284;SDS011;38238;53.304;6.606;2022-08-11T17:37:31;5.38;;;2.30;;
52284;SDS011;38238;53.304;6.606;2022-08-11T17:40:00;4.47;;;2.05;;
52284;SDS011;38238;53.304;6.606;2022-08-11T17:42:31;5.75;;;2.00;;
52284;SDS011;38238;53.304;6.606;2022-08-11T17:45:16;6.38;;;2.30;;
52284;SDS011;38238;53.304;6.606;2022-08-11T17:48:05;5.10;;;2.15;;
52284;SDS011;38238;53.304;6.606;2022-08-11T17:50:50;5.90;;;2.05;;
52284;SDS011;38238;53.304;6.606;2022-08-11T17:53:18;4.90;;;1.90;;
52284;SDS011;38238;53.304;6.606;2022-08-11T17:56:04;3.92;;;2.15;;
52284;SDS011;38238;53.304;6.606;2022-08-11T17:58:49;4.68;;;2.05;;
52284;SDS011;38238;53.304;6.606;2022-08-11T18:01:37;4.70;;;2.13;;
52284;SDS011;38238;53.304;6.606;2022-08-11T18:04:04;2.90;;;1.65;;
52284;SDS011;38238;53.304;6.606;2022-08-11T18:06:31;5.72;;;1.95;;
52284;SDS011;38238;53.304;6.606;2022-08-11T18:08:58;4.88;;;2.20;;
52284;SDS011;38238;53.304;6.606;2022-08-11T18:11:44;4.10;;;2.25;;
52284;SDS011;38238;53.304;6.606;2022-08-11T18:14:31;4.50;;;2.20;;
52284;SDS011;38238;53.304;6.606;2022-08-11T18:17:19;4.95;;;2.05;;
52284;SDS011;38238;53.304;6.606;2022-08-11T18:20:04;3.75;;;2.10;;
52284;SDS011;38238;53.304;6.606;2022-08-11T18:22:49;3.22;;;2.08;;
52284;SDS011;38238;53.304;6.606;2022-08-11T18:25:38;4.13;;;2.58;;
52284;SDS011;38238;53.304;6.606;2022-08-11T18:28:26;4.35;;;2.13;;
52284;SDS011;38238;53.304;6.606;2022-08-11T18:31:15;3.75;;;2.20;;
52284;SDS011;38238;53.304;6.606;2022-08-11T18:34:04;5.65;;;2.28;;
52284;SDS011;38238;53.304;6.606;2022-08-11T18:36:56;5.70;;;2.28;;
52284;SDS011;38238;53.304;6.606;2022-08-11T18:39:43;4.63;;;2.10;;
52284;SDS011;38238;53.304;6.606;2022-08-11T18:42:30;3.65;;;2.47;;
52284;SDS011;38238;53.304;6.606;2022-08-11T18:45:16;5.50;;;2.38;;
52284;SDS011;38238;53.304;6.606;2022-08-11T18:48:04;4.70;;;2.40;;
52284;SDS011;38238;53.304;6.606;2022-08-11T18:50:54;4.32;;;2.25;;
52284;SDS011;38238;53.304;6.606;2022-08-11T18:53:41;4.88;;;2.58;;
52284;SDS011;38238;53.304;6.606;2022-08-11T18:56:29;4.72;;;2.33;;
52284;SDS011;38238;53.304;6.606;2022-08-11T18:59:15;3.60;;;2.40;;
52284;SDS011;38238;53.304;6.606;2022-08-11T19:02:01;5.63;;;2.28;;
52284;SDS011;38238;53.304;6.606;2022-08-11T19:07:32;4.47;;;2.35;;
52284;SDS011;38238;53.304;6.606;2022-08-11T19:10:17;5.72;;;2.60;;
52284;SDS011;38238;53.304;6.606;2022-08-11T19:13:03;7.40;;;2.92;;
52284;SDS011;38238;53.304;6.606;2022-08-11T19:15:50;3.28;;;2.42;;
52284;SDS011;38238;53.304;6.606;2022-08-11T19:18:36;11.43;;;2.97;;
52284;SDS011;38238;53.304;6.606;2022-08-11T19:21:21;7.45;;;2.70;;
52284;SDS011;38238;53.304;6.606;2022-08-11T19:24:06;5.68;;;2.75;;
52284;SDS011;38238;53.304;6.606;2022-08-11T19:26:53;8.98;;;2.85;;
52284;SDS011;38238;53.304;6.606;2022-08-11T19:32:24;5.10;;;2.53;;